Springfield, Oregon
Current Conditions -  °F | °C
As of 12:54 PM on Thursday 27 Nov 2014 (Local Time) from KEUG Reporting Station
Light Rain Light Rain  
Wind Chill: 54°   Ceiling: 3700
Heat Index: 54°   Visibility: 9mi
Dew Point: 50°   Wind: 12mph
Humidity: 86%   Direction: 180°S
Pressure: 30.01"   Gusts: NA
Location:  44.05°N, 123.01°W
Report Text: KEUG 272054Z 18010KT 9SM -RA FEW005 OVC037 12/10 A3001 RMK AO2 RAB36 SLP162 P0000 60009 T01220100 58009
Loading
Personal Weather Stations






























Interactive Weather Map New forecast layout! Learn more

10-Day Weather Forecast

Advertisements
Track Severe Weather on mobile